createdAt,value
2019-03-27T00:00:34.107Z,20.40
2019-03-27T00:01:34.081Z,20.50
2019-03-27T00:02:34.073Z,21.20
2019-03-27T00:03:34.063Z,16.90
2019-03-27T00:04:34.101Z,21.20
2019-03-27T00:05:34.038Z,20.80
2019-03-27T00:06:34.077Z,23.90
2019-03-27T00:07:34.028Z,21.00
2019-03-27T00:08:34.026Z,22.30
2019-03-27T00:09:34.019Z,18.60
2019-03-27T00:10:34.019Z,21.30
2019-03-27T00:11:34.097Z,23.40
2019-03-27T00:12:33.963Z,22.50
2019-03-27T00:13:34.017Z,24.10
2019-03-27T00:14:33.963Z,17.40
2019-03-27T00:15:33.962Z,21.40
2019-03-27T00:16:33.984Z,21.40
2019-03-27T00:17:33.929Z,24.80
2019-03-27T00:18:33.923Z,22.40
2019-03-27T00:19:33.879Z,23.10
2019-03-27T00:20:33.888Z,21.70
2019-03-27T00:21:33.859Z,23.60
2019-03-27T00:22:33.856Z,23.30
2019-03-27T00:23:33.865Z,22.50
2019-03-27T00:24:33.918Z,17.00
2019-03-27T00:25:33.815Z,23.70
2019-03-27T00:26:33.806Z,25.20
2019-03-27T00:27:33.809Z,22.80
2019-03-27T00:28:33.794Z,22.40
2019-03-27T00:29:33.824Z,21.70
2019-03-27T00:30:33.762Z,25.20
2019-03-27T00:31:33.751Z,20.70
2019-03-27T00:32:33.815Z,23.00
2019-03-27T00:33:33.742Z,24.40
2019-03-27T00:34:33.782Z,22.40
2019-03-27T00:35:33.746Z,26.50
2019-03-27T00:36:33.695Z,22.10
2019-03-27T00:37:33.686Z,23.30
2019-03-27T00:38:33.684Z,22.00
2019-03-27T00:39:33.699Z,23.90
2019-03-27T00:40:33.650Z,22.30
2019-03-27T00:41:33.648Z,22.70
2019-03-27T00:42:33.632Z,19.40
2019-03-27T00:43:33.632Z,20.80
2019-03-27T00:44:33.609Z,20.90
2019-03-27T00:45:33.607Z,22.50
2019-03-27T00:46:33.606Z,24.20
2019-03-27T00:47:33.629Z,22.60
2019-03-27T00:48:33.564Z,27.30
2019-03-27T00:49:33.561Z,19.60
2019-03-27T00:50:33.539Z,20.60
2019-03-27T00:51:33.538Z,23.10
2019-03-27T00:52:33.550Z,20.30
2019-03-27T00:53:33.529Z,20.50
2019-03-27T00:54:33.532Z,21.40
2019-03-27T00:55:33.492Z,20.60
2019-03-27T00:56:33.480Z,23.20
2019-03-27T00:57:33.469Z,25.50
2019-03-27T00:58:33.479Z,28.10
2019-03-27T00:59:33.448Z,25.80
2019-03-27T01:00:33.435Z,22.40
2019-03-27T01:01:33.527Z,22.50
2019-03-27T01:02:33.411Z,24.00
2019-03-27T01:03:33.395Z,23.70
2019-03-27T01:04:33.432Z,20.40
2019-03-27T01:05:33.379Z,22.00
2019-03-27T01:06:33.365Z,24.10
2019-03-27T01:07:33.365Z,17.20
2019-03-27T01:08:33.345Z,24.20
2019-03-27T01:09:33.379Z,22.10
2019-03-27T01:10:33.371Z,25.30
2019-03-27T01:11:33.317Z,21.10
2019-03-27T01:12:33.301Z,21.90
2019-03-27T01:13:33.292Z,23.20
2019-03-27T01:14:33.280Z,25.30
2019-03-27T01:15:39.840Z,23.50
2019-03-27T01:16:34.311Z,20.00
2019-03-27T01:17:33.273Z,21.10
2019-03-27T01:18:33.247Z,26.50
2019-03-27T01:19:33.221Z,22.80
2019-03-27T01:20:33.217Z,22.30
2019-03-27T01:21:33.271Z,23.40
2019-03-27T01:22:33.190Z,21.00
2019-03-27T01:23:33.174Z,24.60
2019-03-27T01:24:33.202Z,21.40
2019-03-27T01:25:33.180Z,25.60
2019-03-27T01:26:33.168Z,25.70
2019-03-27T01:27:35.688Z,26.10
2019-03-27T01:28:33.126Z,21.80
2019-03-27T01:29:33.185Z,21.60
2019-03-27T01:30:33.104Z,22.40
2019-03-27T01:31:33.095Z,23.40
2019-03-27T01:32:33.108Z,21.40
2019-03-27T01:33:33.067Z,21.40
2019-03-27T01:34:33.084Z,25.70
2019-03-27T01:35:33.048Z,25.20
2019-03-27T01:36:33.075Z,20.50
2019-03-27T01:37:33.037Z,19.00
2019-03-27T01:38:33.133Z,30.40
2019-03-27T01:39:33.011Z,24.30
2019-03-27T01:40:32.992Z,19.50
2019-03-27T01:41:33.002Z,26.10
2019-03-27T01:42:40.552Z,26.50
2019-03-27T01:43:32.951Z,25.80
2019-03-27T01:44:32.952Z,26.80
2019-03-27T01:45:32.925Z,24.40
2019-03-27T01:46:32.916Z,21.00
2019-03-27T01:47:32.910Z,28.40
2019-03-27T01:48:32.893Z,24.20
2019-03-27T01:49:32.921Z,26.30
2019-03-27T01:50:32.873Z,25.00
2019-03-27T01:51:32.866Z,27.30
2019-03-27T01:52:32.852Z,21.10
2019-03-27T01:53:32.840Z,23.20
2019-03-27T01:54:32.827Z,20.20
2019-03-27T01:55:32.827Z,29.80
2019-03-27T01:56:32.823Z,22.70
2019-03-27T01:57:32.804Z,24.80
2019-03-27T01:58:32.787Z,28.90
2019-03-27T01:59:32.776Z,23.10
2019-03-27T02:00:32.765Z,25.90
2019-03-27T02:01:32.747Z,21.70
2019-03-27T02:02:32.754Z,21.90
2019-03-27T02:03:32.738Z,19.00
2019-03-27T02:04:32.715Z,23.80
2019-03-27T02:05:32.706Z,27.30
2019-03-27T02:06:32.748Z,24.90
2019-03-27T02:07:32.699Z,25.50
2019-03-27T02:08:32.702Z,22.90
2019-03-27T02:09:32.671Z,24.00
2019-03-27T02:10:32.673Z,21.20
2019-03-27T02:11:32.653Z,24.20
2019-03-27T02:12:32.625Z,24.70
2019-03-27T02:13:32.627Z,24.70
2019-03-27T02:14:32.653Z,18.40
2019-03-27T02:15:32.609Z,24.40
2019-03-27T02:16:32.582Z,24.40
2019-03-27T02:17:32.590Z,22.70
2019-03-27T02:18:32.559Z,26.30
2019-03-27T02:19:32.556Z,26.60
2019-03-27T02:20:32.559Z,21.70
2019-03-27T02:21:32.601Z,23.10
2019-03-27T02:22:32.542Z,23.10
2019-03-27T02:23:32.502Z,22.40
2019-03-27T02:24:32.494Z,24.80
2019-03-27T02:25:32.481Z,19.80
2019-03-27T02:26:32.490Z,21.90
2019-03-27T02:27:32.462Z,22.30
2019-03-27T02:28:32.485Z,24.20
2019-03-27T02:29:32.437Z,25.80
2019-03-27T02:30:32.430Z,27.80
2019-03-27T02:31:32.419Z,26.90
2019-03-27T02:32:32.419Z,25.50
2019-03-27T02:33:32.396Z,23.30
2019-03-27T02:34:32.392Z,19.90
2019-03-27T02:35:32.407Z,21.90
2019-03-27T02:36:32.375Z,21.10
2019-03-27T02:37:32.372Z,21.90
2019-03-27T02:38:32.351Z,21.70
2019-03-27T02:39:32.331Z,21.00
2019-03-27T02:40:32.320Z,20.40
2019-03-27T02:41:32.326Z,21.10
2019-03-27T02:42:32.304Z,20.00
2019-03-27T02:43:32.302Z,20.50
2019-03-27T02:44:32.276Z,18.50
2019-03-27T02:45:32.263Z,20.40
2019-03-27T02:46:32.252Z,25.50
2019-03-27T02:47:32.239Z,24.80
2019-03-27T02:48:32.259Z,23.30
2019-03-27T02:49:32.222Z,20.70
2019-03-27T02:50:32.219Z,26.20
2019-03-27T02:51:32.201Z,24.10
2019-03-27T02:52:32.183Z,23.40
2019-03-27T02:53:32.171Z,27.40
2019-03-27T02:54:32.176Z,20.40
2019-03-27T02:55:32.155Z,24.20
2019-03-27T02:56:32.172Z,21.80
2019-03-27T02:57:32.164Z,21.40
2019-03-27T02:58:32.120Z,22.80
2019-03-27T02:59:32.131Z,25.40
2019-03-27T03:00:32.098Z,27.50
2019-03-27T03:01:32.088Z,22.90
2019-03-27T03:02:32.071Z,26.10
2019-03-27T03:03:32.071Z,22.70
2019-03-27T03:04:32.061Z,27.70
2019-03-27T03:05:32.069Z,24.70
2019-03-27T03:06:32.031Z,24.80
2019-03-27T03:07:32.026Z,26.80
2019-03-27T03:08:32.030Z,24.80
2019-03-27T03:09:32.003Z,23.50
2019-03-27T03:10:31.985Z,23.60
2019-03-27T03:11:31.976Z,27.70
2019-03-27T03:12:31.964Z,26.30
2019-03-27T03:13:31.954Z,25.60
2019-03-27T03:14:32.000Z,26.50
2019-03-27T03:15:31.961Z,28.80
2019-03-27T03:16:42.130Z,23.90
2019-03-27T03:17:32.909Z,27.60
2019-03-27T03:18:31.896Z,27.80
2019-03-27T03:19:31.887Z,24.50
2019-03-27T03:20:31.906Z,23.60
2019-03-27T03:21:31.883Z,20.70
2019-03-27T03:22:31.851Z,23.20
2019-03-27T03:23:31.865Z,21.70
2019-03-27T03:24:31.835Z,22.50
2019-03-27T03:25:31.826Z,28.90
2019-03-27T03:26:31.824Z,21.00
2019-03-27T03:27:31.829Z,19.30
2019-03-27T03:28:31.792Z,29.30
2019-03-27T03:29:31.780Z,26.70
2019-03-27T03:30:31.764Z,26.90
2019-03-27T03:31:31.770Z,28.90
2019-03-27T03:32:31.789Z,24.70
2019-03-27T03:33:31.743Z,25.80
2019-03-27T03:34:31.730Z,22.10
2019-03-27T03:35:31.708Z,27.50
2019-03-27T03:36:31.698Z,26.10
2019-03-27T03:37:31.713Z,22.30
2019-03-27T03:38:31.686Z,29.60
2019-03-27T03:39:31.664Z,21.40
2019-03-27T03:40:31.656Z,23.50
2019-03-27T03:41:31.644Z,26.10
2019-03-27T03:42:31.643Z,25.20
2019-03-27T03:43:31.649Z,24.50
2019-03-27T03:44:31.636Z,27.00
2019-03-27T03:45:31.610Z,21.60
2019-03-27T03:46:31.594Z,22.40
2019-03-27T03:47:31.585Z,23.00
2019-03-27T03:48:31.565Z,22.40
2019-03-27T03:49:31.575Z,21.90
2019-03-27T03:50:31.567Z,22.10
2019-03-27T03:51:31.533Z,21.00
2019-03-27T03:52:31.526Z,23.80
2019-03-27T03:53:31.515Z,26.80
2019-03-27T03:54:31.500Z,24.60
2019-03-27T03:55:31.492Z,20.70
2019-03-27T03:56:31.492Z,22.70
2019-03-27T03:57:31.480Z,23.00
2019-03-27T03:58:31.462Z,20.40
2019-03-27T03:59:31.444Z,25.10
2019-03-27T04:00:31.434Z,26.20
2019-03-27T04:01:31.423Z,25.50
2019-03-27T04:02:31.414Z,25.30
2019-03-27T04:03:31.414Z,23.50
2019-03-27T04:04:31.392Z,31.20
2019-03-27T04:05:31.399Z,21.70
2019-03-27T04:06:31.389Z,21.10
2019-03-27T04:07:31.356Z,24.40
2019-03-27T04:08:31.344Z,25.00
2019-03-27T04:09:31.449Z,23.30
2019-03-27T04:10:31.347Z,29.70
2019-03-27T04:11:31.327Z,23.50
2019-03-27T04:12:31.303Z,24.20
2019-03-27T04:13:31.292Z,23.50
2019-03-27T04:14:31.279Z,26.40
2019-03-27T04:15:31.278Z,23.70
2019-03-27T04:16:31.258Z,26.80
2019-03-27T04:17:31.263Z,26.80
2019-03-27T04:18:31.236Z,23.40
2019-03-27T04:19:31.263Z,24.80
2019-03-27T04:20:31.237Z,26.30
2019-03-27T04:21:31.217Z,23.20
2019-03-27T04:22:31.190Z,24.70
2019-03-27T04:23:31.181Z,25.60
2019-03-27T04:24:31.197Z,26.30
2019-03-27T04:25:53.839Z,26.30
2019-03-27T04:26:33.628Z,28.70
2019-03-27T04:27:31.136Z,23.10
2019-03-27T04:28:31.130Z,23.30
2019-03-27T04:29:31.118Z,27.20
2019-03-27T04:30:31.118Z,25.70
2019-03-27T04:31:31.108Z,26.80
2019-03-27T04:32:31.091Z,37.30
2019-03-27T04:33:31.069Z,26.60
2019-03-27T04:34:31.060Z,31.50
2019-03-27T04:35:31.078Z,26.80
2019-03-27T04:36:31.037Z,28.40
2019-03-27T04:37:31.045Z,26.40
2019-03-27T04:38:31.038Z,30.10
2019-03-27T04:39:31.004Z,32.30
2019-03-27T04:40:31.039Z,27.30
2019-03-27T04:41:30.987Z,24.10
2019-03-27T04:42:30.970Z,24.50
2019-03-27T04:43:30.977Z,27.00
2019-03-27T04:44:30.948Z,24.80
2019-03-27T04:45:30.950Z,26.80
2019-03-27T04:46:30.939Z,25.60
2019-03-27T04:47:32.491Z,27.60
2019-03-27T04:48:30.923Z,28.90
2019-03-27T04:49:30.919Z,30.30
2019-03-27T04:50:30.888Z,23.50
2019-03-27T04:51:30.885Z,26.40
2019-03-27T04:52:30.856Z,26.20
2019-03-27T04:53:30.845Z,30.20
2019-03-27T04:54:30.838Z,29.70
2019-03-27T04:55:30.849Z,26.70
2019-03-27T04:56:30.817Z,26.60
2019-03-27T04:57:30.803Z,25.30
2019-03-27T04:58:30.793Z,27.40
2019-03-27T04:59:30.782Z,29.30
2019-03-27T05:00:30.777Z,27.70
2019-03-27T05:01:30.772Z,23.50
2019-03-27T05:02:30.751Z,29.00
2019-03-27T05:03:30.746Z,26.00
2019-03-27T05:04:30.735Z,32.50
2019-03-27T05:05:30.719Z,31.20
2019-03-27T05:06:30.724Z,30.30
2019-03-27T05:07:30.706Z,30.80
2019-03-27T05:08:30.696Z,26.80
2019-03-27T05:09:30.674Z,26.40
2019-03-27T05:10:30.692Z,30.30
2019-03-27T05:11:30.650Z,28.50
2019-03-27T05:12:30.670Z,26.50
2019-03-27T05:13:30.633Z,21.90
2019-03-27T05:14:30.616Z,30.60
2019-03-27T05:15:30.601Z,29.80
2019-03-27T05:16:30.597Z,29.10
2019-03-27T05:17:30.598Z,29.30
2019-03-27T05:18:30.571Z,31.40
2019-03-27T05:19:30.561Z,28.00
2019-03-27T05:20:30.550Z,32.10
2019-03-27T05:21:30.539Z,27.70
2019-03-27T05:22:30.531Z,36.80
2019-03-27T05:23:30.539Z,30.10
2019-03-27T05:24:30.504Z,28.90
2019-03-27T05:25:30.489Z,30.40
2019-03-27T05:26:30.482Z,29.50
2019-03-27T05:27:30.478Z,29.00
2019-03-27T05:28:30.466Z,34.00
2019-03-27T05:29:30.468Z,35.20
2019-03-27T05:30:30.463Z,30.00
2019-03-27T05:31:30.434Z,37.60
2019-03-27T05:32:30.438Z,34.40
2019-03-27T05:33:32.724Z,32.50
2019-03-27T05:34:30.409Z,36.20
2019-03-27T05:35:30.410Z,37.80
2019-03-27T05:36:30.375Z,31.50
2019-03-27T05:37:30.363Z,40.90
2019-03-27T05:38:30.349Z,34.20
2019-03-27T05:39:30.337Z,31.50
2019-03-27T05:40:30.344Z,36.20
2019-03-27T05:41:30.316Z,34.10
2019-03-27T05:42:30.360Z,33.70
2019-03-27T05:43:30.300Z,37.50
2019-03-27T05:44:30.282Z,34.40
2019-03-27T05:45:30.275Z,30.80
2019-03-27T05:46:30.287Z,31.30
2019-03-27T05:47:30.251Z,31.90
2019-03-27T05:48:30.242Z,27.30
2019-03-27T05:49:30.228Z,37.60
2019-03-27T05:50:30.232Z,31.30
2019-03-27T05:51:30.207Z,38.00
2019-03-27T05:52:30.208Z,33.50
2019-03-27T05:53:30.204Z,35.30
2019-03-27T05:54:30.174Z,38.30
2019-03-27T05:55:30.166Z,33.30
2019-03-27T05:56:30.155Z,35.80
2019-03-27T05:57:30.162Z,35.80
2019-03-27T05:58:30.128Z,34.40
2019-03-27T05:59:30.119Z,35.60
2019-03-27T06:00:33.258Z,39.30
2019-03-27T06:01:30.094Z,46.30
2019-03-27T06:02:30.130Z,35.90
2019-03-27T06:03:30.090Z,42.20
2019-03-27T06:04:30.065Z,41.80
2019-03-27T06:05:30.054Z,37.90
2019-03-27T06:06:30.044Z,40.10
2019-03-27T06:07:30.031Z,40.90
2019-03-27T06:08:30.043Z,35.20
2019-03-27T06:09:30.058Z,32.20
2019-03-27T06:10:30.021Z,37.70
2019-03-27T06:11:30.004Z,41.10
2019-03-27T06:12:29.975Z,38.30
2019-03-27T06:13:29.963Z,37.80
2019-03-27T06:14:29.964Z,36.60
2019-03-27T06:15:29.970Z,32.10
2019-03-27T06:16:29.947Z,35.40
2019-03-27T06:17:29.919Z,41.80
2019-03-27T06:18:29.910Z,36.70
2019-03-27T06:19:29.915Z,45.80
2019-03-27T06:20:29.895Z,35.50
2019-03-27T06:21:29.900Z,37.50
2019-03-27T06:22:29.879Z,34.90
2019-03-27T06:23:29.872Z,28.90
2019-03-27T06:24:29.865Z,35.00
2019-03-27T06:25:29.843Z,39.50
2019-03-27T06:26:29.817Z,45.70
2019-03-27T06:27:29.869Z,38.10
2019-03-27T06:28:29.796Z,34.90
2019-03-27T06:29:29.786Z,39.90
2019-03-27T06:30:29.773Z,35.40
2019-03-27T06:31:29.763Z,29.60
2019-03-27T06:32:29.751Z,41.70
2019-03-27T06:33:29.784Z,34.40
2019-03-27T06:34:29.738Z,44.60
2019-03-27T06:35:29.722Z,34.70
2019-03-27T06:36:29.708Z,33.00
2019-03-27T06:37:29.715Z,29.30
2019-03-27T06:38:29.688Z,33.60
2019-03-27T06:39:29.691Z,22.30
2019-03-27T06:40:29.682Z,30.90
2019-03-27T06:41:29.654Z,36.00
2019-03-27T06:42:29.646Z,36.60
2019-03-27T06:43:29.638Z,27.50
2019-03-27T06:44:29.620Z,33.20
2019-03-27T06:45:29.625Z,24.60
2019-03-27T06:46:29.615Z,31.50
2019-03-27T06:47:29.617Z,27.80
2019-03-27T06:48:29.591Z,30.20
2019-03-27T06:49:29.565Z,25.10
2019-03-27T06:50:29.560Z,30.60
2019-03-27T06:51:39.546Z,30.80
2019-03-27T06:52:30.535Z,30.20
2019-03-27T06:53:29.536Z,34.20
2019-03-27T06:54:29.514Z,36.30
2019-03-27T06:55:29.502Z,26.50
2019-03-27T06:56:29.505Z,32.80
2019-03-27T06:57:29.482Z,17.80
2019-03-27T06:58:29.475Z,22.40
2019-03-27T06:59:29.477Z,21.30
2019-03-27T07:00:29.445Z,27.40
2019-03-27T07:01:29.433Z,32.60
2019-03-27T07:02:29.442Z,23.20
2019-03-27T07:03:29.439Z,34.10
2019-03-27T07:04:29.399Z,30.80
2019-03-27T07:05:29.424Z,26.90
2019-03-27T07:06:29.379Z,20.10
2019-03-27T07:07:29.370Z,16.50
2019-03-27T07:08:29.365Z,19.70
2019-03-27T07:09:29.347Z,16.90
2019-03-27T07:10:29.333Z,20.50
2019-03-27T07:11:29.371Z,22.50
2019-03-27T07:12:29.310Z,20.90
2019-03-27T07:13:29.318Z,19.50
2019-03-27T07:14:29.293Z,21.30
2019-03-27T07:15:29.281Z,27.20
2019-03-27T07:16:29.267Z,32.20
2019-03-27T07:17:29.267Z,26.20
2019-03-27T07:18:39.416Z,28.70
2019-03-27T07:19:30.290Z,22.10
2019-03-27T07:20:29.225Z,23.80
2019-03-27T07:21:29.221Z,18.70
2019-03-27T07:22:29.203Z,23.10
2019-03-27T07:23:29.189Z,26.60
2019-03-27T07:24:29.223Z,31.50
2019-03-27T07:25:29.182Z,30.70
2019-03-27T07:26:29.160Z,24.20
2019-03-27T07:27:29.149Z,21.30
2019-03-27T07:28:29.155Z,25.90
2019-03-27T07:29:29.127Z,20.70
2019-03-27T07:30:29.132Z,18.10
2019-03-27T07:31:29.102Z,21.20
2019-03-27T07:32:29.092Z,18.60
2019-03-27T07:33:29.082Z,21.90
2019-03-27T07:34:29.105Z,28.30
2019-03-27T07:35:29.063Z,23.40
2019-03-27T07:36:29.094Z,17.20
2019-03-27T07:37:29.036Z,23.60
2019-03-27T07:38:29.023Z,22.80
2019-03-27T07:39:29.013Z,23.90
2019-03-27T07:40:29.036Z,26.00
2019-03-27T07:41:28.996Z,24.30
2019-03-27T07:42:29.131Z,24.40
2019-03-27T07:43:36.535Z,25.20
2019-03-27T07:44:28.957Z,17.40
2019-03-27T07:45:28.945Z,20.10
2019-03-27T07:46:28.962Z,23.90
2019-03-27T07:47:28.949Z,21.80
2019-03-27T07:48:28.916Z,22.20
2019-03-27T07:49:28.913Z,22.40
2019-03-27T07:50:28.899Z,25.40
2019-03-27T07:51:28.890Z,19.40
2019-03-27T07:52:28.880Z,21.00
2019-03-27T07:53:28.865Z,20.80
2019-03-27T07:54:28.847Z,17.00
2019-03-27T07:55:28.835Z,14.50
2019-03-27T07:56:28.827Z,15.70
2019-03-27T07:57:28.833Z,18.10
2019-03-27T07:58:28.805Z,15.70
2019-03-27T07:59:28.807Z,16.40
2019-03-27T08:00:28.788Z,22.10
2019-03-27T08:01:28.769Z,19.70
2019-03-27T08:02:28.764Z,21.70
2019-03-27T08:03:28.761Z,21.80
2019-03-27T08:04:28.754Z,19.90
2019-03-27T08:05:28.729Z,19.10
2019-03-27T08:06:28.718Z,19.00
2019-03-27T08:07:28.702Z,17.40
2019-03-27T08:08:28.691Z,14.70
2019-03-27T08:09:28.690Z,17.00
2019-03-27T08:10:28.679Z,15.50
2019-03-27T08:11:28.785Z,19.20
2019-03-27T08:12:28.663Z,15.80
2019-03-27T08:13:28.634Z,15.70
2019-03-27T08:14:28.653Z,17.40
2019-03-27T08:15:28.612Z,17.00
2019-03-27T08:16:28.602Z,16.00
2019-03-27T08:17:28.591Z,20.20
2019-03-27T08:18:28.590Z,18.20
2019-03-27T08:19:28.569Z,15.20
2019-03-27T08:20:28.570Z,15.40
2019-03-27T08:21:31.242Z,14.20
2019-03-27T08:22:28.535Z,18.00
2019-03-27T08:23:28.540Z,17.90
2019-03-27T08:24:28.541Z,16.50
2019-03-27T08:25:28.513Z,15.60
2019-03-27T08:26:28.490Z,19.00
2019-03-27T08:27:28.480Z,17.60
2019-03-27T08:28:28.470Z,18.10
2019-03-27T08:29:28.485Z,16.30
2019-03-27T08:30:28.457Z,23.90
2019-03-27T08:31:28.435Z,22.00
2019-03-27T08:32:28.434Z,18.80
2019-03-27T08:33:28.421Z,16.10
2019-03-27T08:34:28.403Z,18.40
2019-03-27T08:35:28.410Z,14.20
2019-03-27T08:36:28.411Z,18.10
2019-03-27T08:37:28.379Z,14.90
2019-03-27T08:38:28.364Z,14.60
2019-03-27T08:39:28.349Z,18.80
2019-03-27T08:40:28.342Z,18.20
2019-03-27T08:41:28.325Z,17.20
2019-03-27T08:42:28.328Z,19.10
2019-03-27T08:43:28.327Z,16.90
2019-03-27T08:44:28.293Z,16.50
2019-03-27T08:45:28.281Z,16.80
2019-03-27T08:46:28.271Z,18.60
2019-03-27T08:47:28.271Z,19.40
2019-03-27T08:48:28.249Z,19.00
2019-03-27T08:49:28.257Z,16.70
2019-03-27T08:50:28.230Z,20.80
2019-03-27T08:51:28.221Z,18.70
2019-03-27T08:52:28.225Z,18.30
2019-03-27T08:53:28.204Z,19.60
2019-03-27T08:54:28.182Z,17.20
2019-03-27T08:55:28.174Z,15.80
2019-03-27T08:56:28.162Z,14.90
2019-03-27T08:57:28.150Z,16.20
2019-03-27T08:58:28.162Z,18.90
2019-03-27T08:59:28.132Z,18.10
2019-03-27T09:00:28.127Z,17.10
2019-03-27T09:01:28.105Z,19.70
2019-03-27T09:02:28.095Z,15.50
2019-03-27T09:03:28.084Z,16.50
2019-03-27T09:04:28.103Z,16.60
2019-03-27T09:05:28.064Z,13.90
2019-03-27T09:06:33.545Z,16.60
2019-03-27T09:07:29.037Z,13.30
2019-03-27T09:08:28.028Z,14.50
2019-03-27T09:09:28.020Z,11.60
2019-03-27T09:10:28.032Z,17.00
2019-03-27T09:11:28.001Z,14.20
2019-03-27T09:12:28.043Z,13.50
2019-03-27T09:13:27.973Z,17.80
2019-03-27T09:14:27.962Z,17.20
2019-03-27T09:15:27.967Z,13.90
2019-03-27T09:16:27.942Z,15.50
2019-03-27T09:17:27.930Z,16.10
2019-03-27T09:18:27.927Z,14.90
2019-03-27T09:19:35.736Z,17.10
2019-03-27T09:20:28.925Z,17.80
2019-03-27T09:21:27.888Z,18.20
2019-03-27T09:22:27.879Z,14.10
2019-03-27T09:23:27.865Z,15.50
2019-03-27T09:24:27.856Z,13.50
2019-03-27T09:25:27.842Z,15.00
2019-03-27T09:26:27.845Z,15.10
2019-03-27T09:27:27.829Z,14.80
2019-03-27T09:28:27.822Z,13.60
2019-03-27T09:29:27.818Z,12.50
2019-03-27T09:30:27.798Z,14.00
2019-03-27T09:31:27.794Z,12.40
2019-03-27T09:32:27.824Z,9.10
2019-03-27T09:33:27.754Z,12.20
2019-03-27T09:34:27.745Z,12.20
2019-03-27T09:35:27.744Z,12.00
2019-03-27T09:36:27.746Z,10.90
2019-03-27T09:37:27.726Z,13.50
2019-03-27T09:38:27.700Z,11.40
2019-03-27T09:39:27.704Z,12.00
2019-03-27T09:40:27.678Z,12.80
2019-03-27T09:41:27.668Z,9.90
2019-03-27T09:42:27.683Z,13.10
2019-03-27T09:43:27.647Z,14.70
2019-03-27T09:44:27.635Z,12.80
2019-03-27T09:45:27.632Z,11.10
2019-03-27T09:46:27.609Z,10.20
2019-03-27T09:47:27.673Z,7.90
2019-03-27T09:48:27.613Z,11.80
2019-03-27T09:49:27.582Z,11.00
2019-03-27T09:50:27.588Z,9.90
2019-03-27T09:51:27.573Z,8.90
2019-03-27T09:52:27.549Z,10.70
2019-03-27T09:53:27.548Z,11.70
2019-03-27T09:54:27.548Z,10.20
2019-03-27T09:55:27.528Z,10.10
2019-03-27T09:56:27.544Z,9.70
2019-03-27T09:57:27.519Z,8.40
2019-03-27T09:58:27.480Z,7.90
2019-03-27T09:59:27.493Z,9.00
2019-03-27T10:00:27.460Z,7.40
2019-03-27T10:01:27.463Z,9.40
2019-03-27T10:02:27.443Z,9.00
2019-03-27T10:03:27.429Z,6.60
2019-03-27T10:04:27.418Z,5.60
2019-03-27T10:05:27.398Z,9.10
2019-03-27T10:06:27.401Z,8.50
2019-03-27T10:07:27.403Z,6.70
2019-03-27T10:08:27.380Z,8.80
2019-03-27T10:09:27.359Z,7.80
2019-03-27T10:10:27.351Z,10.90
2019-03-27T10:11:27.356Z,9.80
2019-03-27T10:12:27.322Z,7.50
2019-03-27T10:13:27.336Z,8.00
2019-03-27T10:14:27.303Z,7.40
2019-03-27T10:15:27.302Z,5.80
2019-03-27T10:16:27.286Z,7.50
2019-03-27T10:17:27.269Z,7.40
2019-03-27T10:18:27.259Z,7.60
2019-03-27T10:19:27.272Z,7.90
2019-03-27T10:20:27.235Z,8.50
2019-03-27T10:21:27.231Z,8.20
2019-03-27T10:22:27.217Z,7.90
2019-03-27T10:23:27.202Z,8.20
2019-03-27T10:24:27.198Z,5.50
2019-03-27T10:25:27.201Z,5.90
2019-03-27T10:26:27.175Z,7.70
2019-03-27T10:27:27.161Z,8.60
2019-03-27T10:28:27.145Z,6.90
2019-03-27T10:29:27.136Z,5.80
2019-03-27T10:30:27.124Z,7.30
2019-03-27T10:31:27.133Z,5.70
2019-03-27T10:32:27.123Z,5.30
2019-03-27T10:33:27.092Z,5.00
2019-03-27T10:34:27.081Z,5.70
2019-03-27T10:35:27.068Z,8.70
2019-03-27T10:36:27.059Z,8.00
2019-03-27T10:37:27.074Z,7.90
2019-03-27T10:38:27.041Z,11.60
2019-03-27T10:39:27.026Z,8.20
2019-03-27T10:40:27.025Z,7.70
2019-03-27T10:41:27.008Z,6.80
2019-03-27T10:42:27.011Z,8.40
2019-03-27T10:43:27.001Z,8.00
2019-03-27T10:44:26.990Z,7.50
2019-03-27T10:45:26.963Z,7.50
2019-03-27T10:46:26.959Z,6.80
2019-03-27T10:47:26.940Z,6.50
2019-03-27T10:48:26.927Z,5.50
2019-03-27T10:49:26.932Z,8.70
2019-03-27T10:50:26.901Z,6.70
2019-03-27T10:51:26.891Z,4.70
2019-03-27T10:52:26.884Z,8.20
2019-03-27T10:53:26.867Z,7.50
2019-03-27T10:54:26.874Z,4.60
2019-03-27T10:55:26.845Z,7.10
2019-03-27T10:56:26.837Z,5.60
2019-03-27T10:57:26.830Z,7.00
2019-03-27T10:58:26.825Z,5.80
2019-03-27T10:59:26.801Z,6.00
2019-03-27T11:00:26.818Z,6.50
2019-03-27T11:01:26.778Z,6.50
2019-03-27T11:02:26.773Z,6.80
2019-03-27T11:03:26.760Z,6.20
2019-03-27T11:04:26.756Z,8.50
2019-03-27T11:05:26.735Z,4.70
2019-03-27T11:06:26.737Z,7.10
2019-03-27T11:07:26.731Z,5.60
2019-03-27T11:08:26.703Z,7.40
2019-03-27T11:09:26.692Z,6.60
2019-03-27T11:10:26.695Z,3.90
2019-03-27T11:11:26.670Z,5.90
2019-03-27T11:12:26.672Z,6.50
2019-03-27T11:13:26.659Z,4.50
2019-03-27T11:14:37.372Z,5.60
2019-03-27T11:15:27.623Z,6.10
2019-03-27T11:16:26.616Z,5.20
2019-03-27T11:17:26.622Z,6.70
2019-03-27T11:18:26.591Z,7.90
2019-03-27T11:19:26.580Z,9.80
2019-03-27T11:20:31.248Z,8.50
2019-03-27T11:21:27.557Z,7.10
2019-03-27T11:22:26.582Z,7.80
2019-03-27T11:23:26.540Z,6.30
2019-03-27T11:24:26.559Z,6.60
2019-03-27T11:25:26.513Z,8.30
2019-03-27T11:26:26.565Z,8.80
2019-03-27T11:27:26.496Z,6.70
2019-03-27T11:28:26.520Z,6.00
2019-03-27T11:29:26.469Z,6.80
2019-03-27T11:30:26.507Z,5.80
2019-03-27T11:31:26.457Z,7.30
2019-03-27T11:32:26.435Z,8.50
2019-03-27T11:33:28.915Z,7.50
2019-03-27T11:34:26.431Z,6.30
2019-03-27T11:35:26.405Z,5.90
2019-03-27T11:36:26.395Z,5.50
2019-03-27T11:37:26.387Z,6.70
2019-03-27T11:38:26.383Z,4.00
2019-03-27T11:39:26.365Z,5.60
2019-03-27T11:40:26.359Z,5.80
2019-03-27T11:41:26.335Z,5.90
2019-03-27T11:42:26.349Z,4.70
2019-03-27T11:43:26.315Z,6.70
2019-03-27T11:44:26.302Z,5.00
2019-03-27T11:45:26.298Z,4.60
2019-03-27T11:46:26.288Z,9.20
2019-03-27T11:47:26.283Z,6.30
2019-03-27T11:48:26.287Z,9.00
2019-03-27T11:49:26.268Z,6.50
2019-03-27T11:50:26.236Z,5.40
2019-03-27T11:51:26.231Z,5.90
2019-03-27T11:52:29.434Z,5.30
2019-03-27T11:53:26.211Z,6.40
2019-03-27T11:54:26.226Z,6.00
2019-03-27T11:55:26.186Z,5.60
2019-03-27T11:56:26.177Z,6.20
2019-03-27T11:57:26.160Z,3.70
2019-03-27T11:58:26.158Z,6.30
2019-03-27T11:59:26.148Z,6.70
2019-03-27T12:00:26.138Z,4.70
2019-03-27T12:01:38.629Z,5.80
2019-03-27T12:02:27.108Z,5.80
2019-03-27T12:03:26.101Z,5.80
2019-03-27T12:04:26.090Z,6.20
2019-03-27T12:05:26.089Z,6.30
2019-03-27T12:06:26.059Z,3.80
2019-03-27T12:07:26.049Z,6.80
2019-03-27T12:08:26.041Z,5.20
2019-03-27T12:09:26.039Z,7.60
2019-03-27T12:10:26.018Z,6.70
2019-03-27T12:11:26.016Z,10.70
2019-03-27T12:12:25.995Z,6.10
2019-03-27T12:13:25.982Z,6.40
2019-03-27T12:14:25.983Z,5.40
2019-03-27T12:15:25.966Z,6.60
2019-03-27T12:16:25.968Z,6.80
2019-03-27T12:17:25.939Z,6.10
2019-03-27T12:18:25.929Z,5.80
2019-03-27T12:19:25.914Z,3.70
2019-03-27T12:20:25.903Z,6.40
2019-03-27T12:21:25.912Z,7.00
2019-03-27T12:22:25.892Z,4.50
2019-03-27T12:23:25.870Z,4.80
2019-03-27T12:24:25.861Z,4.80
2019-03-27T12:25:25.865Z,6.40
2019-03-27T12:26:25.842Z,4.30
2019-03-27T12:27:25.837Z,6.50
2019-03-27T12:28:25.896Z,6.30
2019-03-27T12:29:25.804Z,7.20
2019-03-27T12:30:25.792Z,6.00
2019-03-27T12:31:25.781Z,6.40
2019-03-27T12:32:25.790Z,5.00
2019-03-27T12:33:25.763Z,4.70
2019-03-27T12:34:25.780Z,5.50
2019-03-27T12:35:25.738Z,8.50
2019-03-27T12:36:25.733Z,5.30
2019-03-27T12:37:25.714Z,8.40
2019-03-27T12:38:25.725Z,5.90
2019-03-27T12:39:25.717Z,5.10
2019-03-27T12:40:25.686Z,5.30
2019-03-27T12:41:25.673Z,5.80
2019-03-27T12:42:25.661Z,7.00
2019-03-27T12:43:25.653Z,7.50
2019-03-27T12:44:25.659Z,4.20
2019-03-27T12:45:25.627Z,3.60
2019-03-27T12:46:25.621Z,4.90
2019-03-27T12:47:25.602Z,5.80
2019-03-27T12:48:25.592Z,7.20
2019-03-27T12:49:25.600Z,4.30
2019-03-27T12:50:25.571Z,6.50
2019-03-27T12:51:25.570Z,7.10
2019-03-27T12:52:25.549Z,4.80
2019-03-27T12:53:25.540Z,9.00
2019-03-27T12:54:25.529Z,6.20
2019-03-27T12:55:25.538Z,5.90
2019-03-27T12:56:25.511Z,5.10
2019-03-27T12:57:25.529Z,4.20
2019-03-27T12:58:25.487Z,4.90